首页
METAR-TAF:

METAR-TAF

机场 :

劍橋, 英格兰

纬度: 52-12N, 经度: 000-11E, 海拔: 15米

当前天气观测

该预报发布于1小时和3分钟前的17:50 UTC
风速15节,风向西南,有时为26节阵风,在西转西南之间变化
温度 8°C
湿度 76%
气压 1012 hPa
能见度10公里或以上
散云层高于2700英尺

METAR: EGSC 181750Z 22015G26KT 180V240 9999 SCT027 08/04 Q1012

时间: 18:53 (18:53 UTC)

预报

该预报发布于4小时和52分钟前的14:01 UTC
预报有效从18日的 15点(UTC)到 18日的 19点(UTC)
风速12节,风向西南
能见度10公里或以上
少量云层高于2500英尺
短暂存在
从 18日的 15点(UTC)到 18日的 19点(UTC)
风速18节,风向西转西南,有时为30节阵风
能見度: 4000
多云层高于1200英尺, 积雨云.
大阵雨

TAF: EGSC 181401Z 1815/1819 23012KT 9999 FEW025 TEMPO 1815/1819 24018G30KT 4000 +SHRA BKN012CB

超过4000个机场的气象观测和天气预报(METAR&TAF报告)。

可查询的气象台以黄色和红色小点在地图上表示。

将鼠标移到小点上方,可查看气象台名称。

然后点击查看天气观测和预报。

如需切换地图:点击带黑十字的绿色按钮放大地图;点击带横线的绿色按钮缩小地图;或者点击绿色箭头查看邻近地区的地图。


METAR-TAF: